Time;durP1;ratioP1;P1;durP2;ratioP2;P2;SDS_P1;SDS_P2;PMS_P1;PMS_P2;Temp;Humidity;BMP_temperature;BMP_pressure;BME280_temperature;BME280_humidity;BME280_pressure;Samples;Min_cycle;Max_cycle;Signal;HPM_P1;HPM_P2
2021/06/23 00:11:12;;;;;;;2.53;1.38;;;;;;;21.85;42.14;102211.34;4862523;29;20076;-91
2021/06/23 00:13:42;;;;;;;2.25;1.30;;;;;;;21.84;42.17;102201.72;4885543;29;20053;-92
2021/06/23 00:16:10;;;;;;;2.97;1.20;;;;;;;21.86;41.88;102206.09;4887175;29;20033;-91
2021/06/23 00:18:41;;;;;;;2.63;1.30;;;;;;;21.85;42.17;102201.72;4871387;29;20472;-91
2021/06/23 00:21:12;;;;;;;4.32;1.60;;;;;;;21.87;42.15;102213.06;4868941;29;20035;-91
2021/06/23 00:23:39;;;;;;;3.10;1.50;;;;;;;21.85;42.13;102209.56;4867165;29;20041;-91
2021/06/23 00:26:05;;;;;;;3.65;1.52;;;;;;;21.84;42.00;102207.84;4882624;29;20021;-91
2021/06/23 00:28:30;;;;;;;2.38;1.20;;;;;;;21.81;42.19;102205.22;4870180;29;20548;-93
2021/06/23 00:30:56;;;;;;;3.75;1.45;;;;;;;21.86;42.17;102211.34;4885489;29;20031;-92
2021/06/23 00:33:23;;;;;;;3.72;1.38;;;;;;;21.85;42.29;102206.09;4883488;29;20036;-92
2021/06/23 00:39:10;;;;;;;2.50;1.33;;;;;;;21.85;42.22;102214.81;4881605;29;20492;-91
2021/06/23 00:41:36;;;;;;;6.63;1.30;;;;;;;21.85;42.06;102219.19;4880275;29;20025;-92
2021/06/23 00:44:07;;;;;;;4.05;1.83;;;;;;;21.84;42.31;102206.97;4880978;29;20029;-91
2021/06/23 00:49:54;;;;;;;2.20;1.15;;;;;;;21.84;42.16;102207.84;4881653;29;20093;-92
2021/06/23 00:52:22;;;;;;;2.22;1.23;;;;;;;21.86;42.25;102221.81;4880537;29;20426;-91
2021/06/23 00:54:52;;;;;;;3.55;1.30;;;;;;;21.82;42.40;102206.09;4865133;29;20029;-91
2021/06/23 00:57:20;;;;;;;3.42;1.38;;;;;;;21.85;42.18;102213.97;4861713;29;20056;-92
2021/06/23 00:59:51;;;;;;;2.83;1.35;;;;;;;21.84;42.07;102214.81;4861619;29;20029;-92
2021/06/23 01:02:22;;;;;;;2.50;1.30;;;;;;;21.84;42.29;102212.19;4862610;29;20066;-93
2021/06/23 01:04:53;;;;;;;2.50;1.30;;;;;;;21.84;42.37;102213.09;4849335;29;20450;-91
2021/06/23 01:07:19;;;;;;;2.63;1.20;;;;;;;21.85;42.27;102213.97;4862451;29;20046;-91
2021/06/23 01:13:25;;;;;;;2.20;1.00;;;;;;;21.86;42.12;102226.16;4849952;29;20053;-91
2021/06/23 01:15:53;;;;;;;2.30;1.20;;;;;;;21.85;42.27;102220.06;4862352;29;20049;-91
2021/06/23 01:18:21;;;;;;;2.00;1.25;;;;;;;21.85;42.40;102224.44;4861550;29;20440;-92
2021/06/23 01:20:47;;;;;;;5.32;1.30;;;;;;;21.83;42.28;102215.72;4861694;29;20029;-91
2021/06/23 01:23:14;;;;;;;2.08;1.23;;;;;;;21.83;42.30;102206.09;4861427;29;20057;-90
2021/06/23 01:25:41;;;;;;;3.67;1.20;;;;;;;21.85;42.25;102216.56;4861071;29;20033;-91
2021/06/23 01:28:06;;;;;;;2.53;1.30;;;;;;;21.83;42.29;102213.97;4860813;29;20124;-91
2021/06/23 01:30:33;;;;;;;2.45;1.23;;;;;;;21.85;42.38;102211.34;4861107;29;20060;-93
2021/06/23 01:32:59;;;;;;;2.55;1.20;;;;;;;21.85;42.35;102217.44;4860981;29;20033;-91
2021/06/23 01:35:26;;;;;;;1.92;0.93;;;;;;;21.84;42.40;102213.09;4860677;29;20085;-91
2021/06/23 01:37:55;;;;;;;2.63;1.10;;;;;;;21.85;42.49;102206.97;4864589;29;20109;-91
2021/06/23 01:40:21;;;;;;;3.40;1.00;;;;;;;21.84;42.15;102217.44;4864506;29;20112;-91
2021/06/23 01:42:46;;;;;;;4.05;1.10;;;;;;;21.83;42.47;102205.22;4864935;29;20117;-93
2021/06/23 01:45:13;;;;;;;2.60;1.35;;;;;;;21.83;42.38;102210.47;4864894;29;20025;-91
2021/06/23 01:47:42;;;;;;;2.25;1.15;;;;;;;21.85;42.45;102209.56;4865088;29;20122;-92
2021/06/23 01:50:09;;;;;;;2.72;1.30;;;;;;;21.86;42.19;102207.81;4868151;29;20030;-93
2021/06/23 01:52:37;;;;;;;2.72;1.08;;;;;;;21.86;42.29;102202.56;4870983;29;20026;-92
2021/06/23 01:55:03;;;;;;;1.77;1.08;;;;;;;21.83;42.42;102200.84;4871882;29;20044;-92
2021/06/23 01:57:30;;;;;;;2.75;1.15;;;;;;;21.84;42.17;102202.59;4870249;29;20485;-91
2021/06/23 01:59:56;;;;;;;2.35;1.25;;;;;;;21.84;42.44;102202.59;4867408;29;20500;-92
2021/06/23 02:02:38;;;;;;;1.95;1.17;;;;;;;21.84;42.36;102202.59;4852441;29;20033;-91
2021/06/23 02:05:11;;;;;;;2.15;1.10;;;;;;;21.86;42.20;102199.97;4864861;29;20507;-91
2021/06/23 02:08:00;;;;;;;;;;;;;;;21.84;42.46;102200.00;4865753;29;20055;-90
2021/06/23 02:10:37;;;;;;;1.83;1.00;;;;;;;21.85;42.51;102199.09;4864645;29;19912;-90
2021/06/23 02:13:27;;;;;;;2.53;1.13;;;;;;;21.84;42.45;102201.72;4864395;29;20043;-92
2021/06/23 02:16:05;;;;;;;3.47;1.35;;;;;;;21.84;42.37;102196.47;4864469;29;20493;-90
2021/06/23 02:18:31;;;;;;;3.17;1.13;;;;;;;21.84;42.57;102202.59;4864417;29;20030;-91
2021/06/23 02:20:58;;;;;;;2.15;1.20;;;;;;;21.84;42.54;102207.84;4864848;29;20093;-90
2021/06/23 02:23:27;;;;;;;2.28;1.10;;;;;;;21.83;42.69;102202.59;4863898;29;20128;-92
2021/06/23 02:25:53;;;;;;;3.35;1.15;;;;;;;21.83;42.43;102202.59;4848752;29;20033;-91
2021/06/23 02:28:19;;;;;;;2.03;1.02;;;;;;;21.82;42.58;102211.34;4849200;29;20456;-93
2021/06/23 02:30:45;;;;;;;1.98;1.05;;;;;;;21.83;42.66;102213.09;4864100;29;20030;-92
2021/06/23 02:33:12;;;;;;;4.10;1.33;;;;;;;21.81;42.32;102213.09;4863816;29;20075;-92
2021/06/23 02:35:39;;;;;;;2.08;1.10;;;;;;;21.81;42.70;102215.72;4863784;29;20026;-92
2021/06/23 02:38:06;;;;;;;3.58;1.20;;;;;;;21.81;42.70;102213.09;4863579;29;20050;-91
2021/06/23 02:40:33;;;;;;;2.90;1.33;;;;;;;21.80;42.39;102211.38;4863736;29;20499;-91
2021/06/23 02:42:59;;;;;;;2.33;1.02;;;;;;;21.79;42.45;102206.97;4866715;29;20037;-92
2021/06/23 02:45:26;;;;;;;4.65;1.17;;;;;;;21.83;42.45;102215.72;4869602;29;20111;-91
2021/06/23 02:47:52;;;;;;;1.42;0.88;;;;;;;21.81;42.60;102218.31;4867177;29;20119;-91
2021/06/23 02:50:18;;;;;;;2.10;1.10;;;;;;;21.81;42.81;102215.72;4867025;29;20029;-94
2021/06/23 02:52:44;;;;;;;2.05;1.10;;;;;;;21.80;42.44;102223.56;4867679;29;20036;-90
2021/06/23 02:55:10;;;;;;;2.83;1.17;;;;;;;21.78;42.47;102218.38;4868723;29;20033;-92
2021/06/23 02:57:36;;;;;;;2.13;1.05;;;;;;;21.83;42.61;102226.19;4866652;29;20058;-91
2021/06/23 03:00:10;;;;;;;2.03;1.05;;;;;;;21.81;42.56;102222.72;4865635;29;20025;-92
2021/06/23 03:02:35;;;;;;;;;;;;;;;21.81;42.51;102227.94;4865864;29;20057;-91
2021/06/23 03:05:01;;;;;;;1.83;0.93;;;;;;;21.81;42.60;102228.81;4863912;29;19912;-91
2021/06/23 03:07:28;;;;;;;3.05;1.00;;;;;;;21.81;42.62;102227.94;4849001;29;20188;-93
2021/06/23 03:10:08;;;;;;;3.47;1.20;;;;;;;21.81;42.45;102233.19;4863669;29;20026;-92
2021/06/23 03:12:34;;;;;;;1.38;0.88;;;;;;;21.79;42.55;102233.19;4863822;29;20056;-90
2021/06/23 03:15:00;;;;;;;2.20;1.10;;;;;;;21.79;42.62;102227.94;4862900;29;20056;-92
2021/06/23 03:17:26;;;;;;;2.03;1.00;;;;;;;21.79;42.56;102233.19;4865685;29;20066;-92
2021/06/23 03:19:52;;;;;;;2.13;1.13;;;;;;;21.80;42.64;102229.72;4863531;29;20025;-92
2021/06/23 03:22:17;;;;;;;4.15;1.40;;;;;;;21.79;42.64;102235.81;4863337;29;20026;-93
2021/06/23 03:24:43;;;;;;;1.88;1.05;;;;;;;21.80;42.62;102231.44;4864500;29;20026;-92
2021/06/23 03:27:08;;;;;;;2.00;0.90;;;;;;;21.80;42.52;102234.06;4852231;29;20036;-91
2021/06/23 03:29:35;;;;;;;2.65;1.10;;;;;;;21.83;42.53;102241.91;4878028;29;20029;-91
2021/06/23 03:32:09;;;;;;;1.70;0.95;;;;;;;21.78;42.58;102241.94;4877449;29;20075;-91
2021/06/23 03:34:35;;;;;;;3.00;1.20;;;;;;;21.80;42.61;102245.44;4867803;29;20037;-91
2021/06/23 03:37:01;;;;;;;3.28;1.00;;;;;;;21.81;42.73;102254.16;4864732;29;20034;-92
2021/06/23 03:39:26;;;;;;;3.05;1.00;;;;;;;21.79;42.57;102248.91;4863611;29;20029;-92
2021/06/23 03:41:54;;;;;;;1.95;0.95;;;;;;;21.76;42.71;102251.56;4862963;29;20029;-91
2021/06/23 03:44:22;;;;;;;2.95;0.80;;;;;;;21.76;42.63;102251.56;4862591;29;20464;-91
2021/06/23 03:46:47;;;;;;;2.15;0.93;;;;;;;21.77;42.75;102245.44;4862600;29;20044;-91
2021/06/23 03:49:13;;;;;;;1.88;0.95;;;;;;;21.76;42.70;102247.19;4847264;29;20041;-91
2021/06/23 03:51:41;;;;;;;4.25;1.20;;;;;;;21.77;42.43;102254.19;4847601;29;20044;-91
2021/06/23 03:54:07;;;;;;;1.70;0.93;;;;;;;21.79;42.56;102259.38;4862626;29;20093;-91
2021/06/23 03:56:33;;;;;;;3.83;1.00;;;;;;;21.78;42.56;102255.03;4862395;29;20097;-91
2021/06/23 03:58:58;;;;;;;1.55;0.90;;;;;;;21.79;42.63;102264.63;4847244;29;20489;-91
2021/06/23 04:01:24;;;;;;;1.92;1.00;;;;;;;21.78;42.71;102265.53;4862711;29;20025;-92
2021/06/23 04:03:49;;;;;;;2.05;1.02;;;;;;;21.78;42.76;102255.03;4863151;29;20065;-92
2021/06/23 04:06:15;;;;;;;1.42;1.10;;;;;;;21.81;42.52;102268.13;4851187;29;20033;-92
2021/06/23 04:08:40;;;;;;;2.65;0.90;;;;;;;21.78;42.71;102265.53;4850949;29;20033;-90
2021/06/23 04:11:06;;;;;;;2.75;1.10;;;;;;;21.77;42.70;102258.53;4871596;29;20033;-91
2021/06/23 04:13:31;;;;;;;2.08;0.90;;;;;;;21.76;42.58;102265.53;4869429;29;20057;-92
2021/06/23 04:15:57;;;;;;;2.45;1.02;;;;;;;21.77;42.60;102262.03;4866567;29;20034;-91
2021/06/23 04:18:22;;;;;;;4.20;1.13;;;;;;;21.76;42.54;102265.53;4865083;29;20496;-92
2021/06/23 04:20:48;;;;;;;2.92;1.00;;;;;;;21.74;42.93;102264.66;4865288;29;20029;-90
2021/06/23 04:23:13;;;;;;;3.38;1.10;;;;;;;21.75;42.64;102268.13;4864926;29;20047;-92
2021/06/23 04:25:39;;;;;;;2.67;1.10;;;;;;;21.76;42.73;102264.66;4865258;29;20033;-91
2021/06/23 04:28:04;;;;;;;2.67;1.00;;;;;;;21.78;42.67;102266.38;4864551;29;20363;-91
2021/06/23 04:30:30;;;;;;;1.85;0.90;;;;;;;21.76;42.75;102268.16;4863709;29;20117;-90
2021/06/23 04:32:56;;;;;;;1.55;0.90;;;;;;;21.76;42.68;102267.28;4861690;29;20029;-92
2021/06/23 04:35:21;;;;;;;2.20;1.05;;;;;;;21.75;42.55;102262.91;4862371;29;20025;-91
2021/06/23 04:37:51;;;;;;;1.73;0.90;;;;;;;21.78;42.42;102268.16;4862685;29;20029;-91
2021/06/23 04:40:17;;;;;;;2.38;1.02;;;;;;;21.76;42.79;102262.91;4846865;29;20089;-92
2021/06/23 04:42:44;;;;;;;1.45;0.90;;;;;;;21.76;42.71;102265.53;4861647;29;20034;-90
2021/06/23 04:45:13;;;;;;;2.13;0.88;;;;;;;21.78;42.53;102260.28;4862040;29;20036;-91
2021/06/23 04:47:40;;;;;;;4.97;1.00;;;;;;;21.80;42.92;102268.13;4861653;29;20026;-91
2021/06/23 04:50:10;;;;;;;2.38;0.98;;;;;;;21.80;42.91;102260.25;4846337;29;20025;-91
2021/06/23 04:52:36;;;;;;;2.60;0.80;;;;;;;21.80;42.96;102266.41;4862454;29;20496;-93
2021/06/23 04:55:03;;;;;;;2.00;0.90;;;;;;;21.83;42.89;102262.88;4861528;29;20493;-90
2021/06/23 04:57:28;;;;;;;1.73;1.00;;;;;;;21.84;42.69;102262.88;4862536;29;20077;-91
2021/06/23 04:59:54;;;;;;;1.83;0.93;;;;;;;21.83;42.73;102271.59;4861319;29;20422;-90
2021/06/23 05:02:19;;;;;;;3.20;0.90;;;;;;;21.84;42.69;102265.50;4846234;29;20133;-91
2021/06/23 05:04:45;;;;;;;1.27;0.80;;;;;;;21.81;42.70;102260.25;4860676;29;20508;-90
2021/06/23 05:07:10;;;;;;;1.27;0.80;;;;;;;21.82;42.83;102266.34;4846153;29;20029;-91
2021/06/23 05:09:37;;;;;;;2.28;1.00;;;;;;;21.85;42.60;102264.63;4861019;29;20058;-91
2021/06/23 05:12:04;;;;;;;1.65;0.80;;;;;;;21.84;42.69;102270.75;4860374;29;20022;-90
2021/06/23 05:14:35;;;;;;;1.73;0.98;;;;;;;21.86;42.70;102265.47;4861007;29;20121;-89
2021/06/23 05:17:02;;;;;;;5.32;1.30;;;;;;;21.89;42.56;102270.72;4861771;29;20045;-91
2021/06/23 05:19:28;;;;;;;3.72;1.88;;;;;;;21.88;42.55;102271.59;4860834;29;20030;-92
2021/06/23 05:21:54;;;;;;;3.80;1.48;;;;;;;21.90;42.68;102268.06;4861072;29;20116;-90
2021/06/23 05:24:20;;;;;;;3.42;1.58;;;;;;;21.96;42.73;102267.19;4861178;29;20392;-91
2021/06/23 05:26:48;;;;;;;6.30;1.65;;;;;;;21.96;42.78;102270.66;4860848;29;20042;-91
2021/06/23 05:29:13;;;;;;;2.33;1.20;;;;;;;21.95;42.50;102276.78;4861498;29;20025;-91
2021/06/23 05:31:39;;;;;;;4.75;1.45;;;;;;;21.95;43.04;102279.41;4860916;29;20450;-91
2021/06/23 05:34:04;;;;;;;4.20;1.70;;;;;;;21.95;42.71;102286.41;4845483;29;20078;-91
2021/06/23 05:36:36;;;;;;;4.65;2.10;;;;;;;21.92;42.93;102282.03;4860501;29;20074;-90
2021/06/23 05:39:01;;;;;;;15.13;3.30;;;;;;;21.96;42.74;102289.00;4846107;29;20056;-93
2021/06/23 05:41:29;;;;;;;8.32;3.60;;;;;;;21.96;42.75;102285.53;4860891;29;20060;-92
2021/06/23 05:43:55;;;;;;;8.20;3.35;;;;;;;21.94;42.58;102297.75;4861844;29;20128;-90
2021/06/23 05:46:24;;;;;;;8.50;3.20;;;;;;;21.91;42.97;102295.16;4852466;29;20064;-90
2021/06/23 05:48:50;;;;;;;7.80;3.03;;;;;;;21.87;42.81;102289.06;4869829;29;20101;-90
2021/06/23 05:51:30;;;;;;;7.82;2.50;;;;;;;21.85;41.77;102298.69;4871351;29;20060;-91
2021/06/23 05:53:58;;;;;;;8.15;2.72;;;;;;;21.86;42.35;102297.81;4873671;29;20078;-91
2021/06/23 05:56:26;;;;;;;6.25;2.50;;;;;;;21.86;42.21;102294.31;4872314;29;20029;-91
2021/06/23 05:58:52;;;;;;;8.85;3.10;;;;;;;21.87;42.26;102294.31;4866333;29;20022;-90
2021/06/23 06:01:17;;;;;;;7.50;2.67;;;;;;;21.83;41.99;102289.94;4863853;29;20450;-91
2021/06/23 06:03:43;;;;;;;9.23;2.80;;;;;;;21.85;42.19;102293.44;4847845;29;20124;-91
2021/06/23 06:06:11;;;;;;;7.25;2.70;;;;;;;21.85;42.07;102297.81;4862434;29;20501;-91
2021/06/23 06:08:41;;;;;;;8.38;2.85;;;;;;;21.83;41.90;102291.72;4861758;29;20112;-92
2021/06/23 06:11:07;;;;;;;10.00;2.60;;;;;;;21.83;41.96;102289.94;4861150;29;20036;-91
2021/06/23 06:13:35;;;;;;;7.40;2.38;;;;;;;21.83;41.70;102289.94;4861369;29;20392;-89
2021/06/23 06:16:01;;;;;;;6.90;2.30;;;;;;;21.85;41.80;102289.94;4862515;29;20048;-91
2021/06/23 06:18:29;;;;;;;7.93;2.40;;;;;;;21.84;41.60;102286.47;4863487;29;20033;-92
2021/06/23 06:21:01;;;;;;;7.38;2.60;;;;;;;21.87;41.62;102298.69;4864715;29;20064;-91
2021/06/23 06:23:26;;;;;;;8.82;2.55;;;;;;;21.85;41.56;102296.06;4849039;29;20062;-89
2021/06/23 06:25:52;;;;;;;6.78;2.50;;;;;;;21.87;41.68;102288.19;4864868;29;20037;-92
2021/06/23 06:28:18;;;;;;;9.25;2.60;;;;;;;21.90;41.64;102293.41;4864640;29;20033;-91
2021/06/23 06:30:44;;;;;;;6.57;2.30;;;;;;;21.88;41.26;102293.41;4864483;29;20030;-91
2021/06/23 06:33:12;;;;;;;7.40;2.40;;;;;;;21.87;41.48;102294.31;4848522;29;20050;-92
2021/06/23 06:35:38;;;;;;;5.18;1.92;;;;;;;21.86;41.38;102294.31;4865327;29;20030;-90
2021/06/23 06:38:06;;;;;;;5.75;1.95;;;;;;;21.86;41.52;102291.69;4865356;29;20048;-91
2021/06/23 06:40:32;;;;;;;4.28;1.90;;;;;;;21.87;41.43;102291.69;4865212;29;20026;-91
2021/06/23 06:42:57;;;;;;;4.95;2.00;;;;;;;21.87;41.30;102294.31;4849744;29;20038;-91
2021/06/23 06:52:07;;;;;;;5.60;1.92;;;;;;;21.91;41.38;102292.56;4870018;29;20055;-91
2021/06/23 06:54:33;;;;;;;4.07;2.00;;;;;;;21.93;41.24;102301.28;4865585;29;20033;-91
2021/06/23 06:57:01;;;;;;;4.20;1.50;;;;;;;21.90;41.21;102302.13;4864495;29;20026;-90
2021/06/23 06:59:27;;;;;;;7.28;2.17;;;;;;;21.91;41.36;102308.28;4865001;29;20037;-90
2021/06/23 07:01:53;;;;;;;3.92;1.65;;;;;;;21.91;41.00;102309.13;4869423;29;20022;-90
2021/06/23 07:04:19;;;;;;;4.30;1.63;;;;;;;21.93;41.25;102307.38;4853212;29;20041;-90
2021/06/23 07:06:45;;;;;;;3.00;1.55;;;;;;;21.91;41.20;102301.28;4868706;29;20032;-91
2021/06/23 07:09:14;;;;;;;4.45;1.70;;;;;;;21.96;41.32;102311.72;4864572;29;20033;-91
2021/06/23 07:11:43;;;;;;;3.95;1.80;;;;;;;21.94;41.36;102305.63;4864070;29;20056;-89
2021/06/23 07:14:09;;;;;;;5.18;1.80;;;;;;;21.98;41.22;102313.47;4863253;29;20034;-90
2021/06/23 07:16:49;;;;;;;3.83;1.70;;;;;;;22.05;40.97;102311.69;4862835;29;20045;-89
2021/06/23 07:23:23;;;;;;;;;;;;;;;;;;;;;
2021/06/23 10:11:11;;;;;;;7.25;1.80;;;;;;;21.22;36.40;102350.31;4352745;23;20341;31
2021/06/23 10:14:23;;;;;;;8.07;1.50;;;;;;;21.18;35.84;102359.91;4857719;29;20057;-93
2021/06/23 10:16:51;;;;;;;6.55;1.83;;;;;;;21.19;36.47;102352.94;4871505;29;20049;-92
2021/06/23 10:19:19;;;;;;;6.57;1.70;;;;;;;21.20;36.49;102347.69;4877253;29;20057;-92
2021/06/23 10:21:47;;;;;;;7.13;1.90;;;;;;;21.21;36.44;102353.81;4869084;29;20060;-92
2021/06/23 10:24:15;;;;;;;7.22;1.80;;;;;;;21.23;36.17;102354.69;4865615;29;20049;-94
2021/06/23 10:26:47;;;;;;;6.88;1.70;;;;;;;21.22;36.21;102356.44;4846521;29;20094;-92
2021/06/23 10:29:20;;;;;;;6.97;2.17;;;;;;;21.21;36.25;102356.41;4847706;29;20030;-93
2021/06/23 10:31:46;;;;;;;7.28;1.95;;;;;;;21.19;36.44;102359.06;4847175;29;20057;-94
2021/06/23 10:34:15;;;;;;;5.05;2.03;;;;;;;21.22;36.44;102353.81;4816618;29;20485;-92
2021/06/23 10:36:42;;;;;;;6.97;2.03;;;;;;;21.23;36.26;102347.72;4847538;29;20069;-94
2021/06/23 10:39:11;;;;;;;7.55;1.63;;;;;;;21.23;36.06;102349.44;4847304;29;20040;-90
2021/06/23 10:41:48;;;;;;;8.13;1.90;;;;;;;21.25;36.43;102352.94;4831047;29;20470;-94
2021/06/23 10:44:27;;;;;;;9.88;2.25;;;;;;;21.27;36.34;102362.53;4846420;29;20049;-93
2021/06/23 10:47:00;;;;;;;8.45;2.15;;;;;;;21.25;36.53;102356.44;4846204;29;20044;-94
2021/06/23 10:49:50;;;;;;;6.95;1.90;;;;;;;21.22;35.93;102358.19;4845620;29;20549;-90
2021/06/23 10:52:22;;;;;;;8.20;1.90;;;;;;;21.22;35.64;102356.44;4830733;29;20034;-92
2021/06/23 10:54:52;;;;;;;8.73;2.08;;;;;;;21.19;35.95;102356.44;4831011;29;20030;-92
2021/06/23 10:57:28;;;;;;;3.78;1.63;;;;;;;21.23;36.46;102354.69;4831714;29;20370;-91
2021/06/23 11:00:15;;;;;;;6.25;1.90;;;;;;;21.22;36.16;102350.31;4830359;29;20042;-92
2021/06/23 11:02:46;;;;;;;11.23;2.15;;;;;;;21.22;36.18;102348.56;4844328;29;20038;-93
2021/06/23 11:05:22;;;;;;;7.82;2.47;;;;;;;21.22;36.52;102356.44;4830955;29;20064;-92
2021/06/23 11:07:53;;;;;;;7.47;2.33;;;;;;;21.26;36.58;102349.44;4831811;29;20030;-94
2021/06/23 11:10:26;;;;;;;8.40;2.40;;;;;;;21.20;36.08;102354.69;4845357;29;20059;-93
2021/06/23 11:12:54;;;;;;;9.90;2.08;;;;;;;21.24;36.47;102345.97;4846497;29;20042;-94
2021/06/23 11:15:33;;;;;;;7.78;1.95;;;;;;;21.27;36.16;102348.56;4845781;29;20117;-94
2021/06/23 11:18:26;;;;;;;9.18;2.10;;;;;;;21.29;36.52;102342.44;4846608;29;20022;-92
2021/06/23 11:21:10;;;;;;;8.88;1.70;;;;;;;21.29;36.39;102347.69;4832432;29;20057;-93
2021/06/23 11:23:40;;;;;;;;;;;;;;;21.33;36.23;102354.66;4846763;29;20037;-92
2021/06/23 11:26:08;;;;;;;4.50;1.63;;;;;;;21.31;36.10;102353.78;4846868;29;19916;-91
2021/06/23 11:28:34;;;;;;;7.22;2.00;;;;;;;21.29;36.29;102352.06;4818168;29;20031;-92
2021/06/23 11:31:10;;;;;;;5.60;1.40;;;;;;;21.27;36.18;102354.66;4830973;29;20044;-92
2021/06/23 11:33:38;;;;;;;6.07;1.90;;;;;;;21.28;36.63;102347.72;4847537;29;20038;-93
2021/06/23 11:36:13;;;;;;;5.88;1.90;;;;;;;21.23;36.83;102347.72;4832224;29;20041;-91
2021/06/23 11:38:39;;;;;;;6.78;2.38;;;;;;;21.23;36.71;102355.56;4847278;29;20025;-91
2021/06/23 11:41:09;;;;;;;8.23;2.05;;;;;;;21.21;36.97;102351.19;4847302;29;20105;-92
2021/06/23 11:43:38;;;;;;;5.45;2.00;;;;;;;21.21;37.04;102339.00;4849019;29;20022;-91
2021/06/23 11:46:09;;;;;;;7.18;2.03;;;;;;;21.22;36.77;102345.94;4831956;29;20055;-93
2021/06/23 11:48:37;;;;;;;7.78;2.10;;;;;;;21.20;36.60;102341.59;4815060;29;20034;-90
2021/06/23 11:51:04;;;;;;;6.90;1.88;;;;;;;21.17;37.07;102340.72;4845298;29;20029;-92
2021/06/23 11:53:30;;;;;;;6.68;1.80;;;;;;;21.22;37.05;102340.72;4829316;29;20033;-90
2021/06/23 11:55:55;;;;;;;8.32;2.13;;;;;;;21.15;36.91;102346.84;4844325;29;20041;-90
2021/06/23 11:58:23;;;;;;;6.38;1.80;;;;;;;21.14;36.90;102348.59;4843882;29;20022;-91
2021/06/23 12:00:49;;;;;;;9.45;1.80;;;;;;;21.20;37.13;102344.22;4844485;29;20117;-90
2021/06/23 12:03:16;;;;;;;8.23;2.05;;;;;;;21.17;37.04;102348.56;4844565;29;20105;-92
2021/06/23 12:05:42;;;;;;;5.10;2.20;;;;;;;21.17;36.78;102345.09;4843850;29;20022;-91
2021/06/23 12:11:29;;;;;;;8.02;2.17;;;;;;;21.17;36.83;102339.88;4837510;29;20144;-93
2021/06/23 12:13:54;;;;;;;5.72;1.98;;;;;;;21.19;37.07;102352.94;4828877;29;20057;-90
2021/06/23 12:16:32;;;;;;;8.18;2.42;;;;;;;21.17;37.11;102345.97;4829568;29;20042;-91
2021/06/23 12:18:58;;;;;;;7.15;2.00;;;;;;;21.20;36.95;102346.84;4815331;29;20062;-92
2021/06/23 12:21:23;;;;;;;5.85;2.00;;;;;;;21.23;36.92;102349.44;4828560;29;20114;-91
2021/06/23 12:23:49;;;;;;;5.35;2.17;;;;;;;21.26;37.20;102337.22;4828952;29;20361;-91
2021/06/23 12:26:23;;;;;;;6.25;1.75;;;;;;;21.27;36.97;102344.19;4829487;29;20022;-91
2021/06/23 12:28:50;;;;;;;6.95;1.85;;;;;;;21.35;37.00;102350.31;4844658;29;20391;-90
2021/06/23 12:31:16;;;;;;;4.82;1.83;;;;;;;21.42;37.14;102345.09;4814817;29;20054;-91
2021/06/23 12:33:41;;;;;;;11.82;2.17;;;;;;;21.41;36.86;102343.31;4844981;29;20026;-95
2021/06/23 12:36:07;;;;;;;6.22;1.67;;;;;;;21.35;36.70;102347.69;4844299;29;20026;-93
2021/06/23 12:38:33;;;;;;;8.88;2.00;;;;;;;21.33;37.01;102341.56;4828391;29;20112;-90
2021/06/23 12:40:58;;;;;;;6.10;1.85;;;;;;;21.31;37.05;102338.09;4843917;29;20371;-91
2021/06/23 12:43:24;;;;;;;7.88;1.90;;;;;;;21.32;37.01;102345.06;4798191;29;20037;-91
2021/06/23 12:45:52;;;;;;;7.07;1.83;;;;;;;21.38;36.90;102338.94;4830194;29;20030;-92
2021/06/23 12:48:18;;;;;;;8.27;2.05;;;;;;;21.28;37.13;102335.47;4855381;29;20034;-91
2021/06/23 12:50:44;;;;;;;6.28;1.92;;;;;;;21.36;37.07;102335.44;4863330;29;20028;-91
2021/06/23 12:53:09;;;;;;;6.60;1.73;;;;;;;21.36;36.81;102338.97;4833649;29;20057;-92
2021/06/23 12:55:35;;;;;;;8.75;2.05;;;;;;;21.35;36.67;102336.34;4846161;29;20041;-92
2021/06/23 12:58:01;;;;;;;5.47;2.05;;;;;;;21.32;36.54;102338.97;4828906;29;20030;-94
2021/06/23 13:00:26;;;;;;;5.95;1.52;;;;;;;21.28;36.92;102345.94;4829202;29;20485;-91
2021/06/23 13:02:52;;;;;;;7.15;2.03;;;;;;;21.27;36.45;102338.09;4843780;29;20094;-92
2021/06/23 13:05:19;;;;;;;5.78;1.67;;;;;;;21.23;36.71;102331.09;4828673;29;20478;-92
2021/06/23 13:07:48;;;;;;;7.40;1.95;;;;;;;21.21;36.75;102336.38;4843248;29;20438;-91
2021/06/23 13:10:15;;;;;;;7.63;2.17;;;;;;;21.24;36.66;102345.97;4843181;29;20030;-92
2021/06/23 13:12:41;;;;;;;6.20;1.90;;;;;;;21.30;36.89;102338.97;4843016;29;20062;-90
2021/06/23 13:18:31;;;;;;;4.78;1.60;;;;;;;21.28;37.10;102338.09;4844295;29;20044;-93
2021/06/23 13:20:56;;;;;;;9.52;1.80;;;;;;;21.26;36.90;102338.97;4828748;29;20060;-90
2021/06/23 13:23:22;;;;;;;9.27;2.05;;;;;;;21.25;36.96;102345.97;4843897;29;20341;-91
2021/06/23 13:25:48;;;;;;;9.18;2.25;;;;;;;21.26;36.99;102338.97;4827437;29;20033;-93
2021/06/23 13:28:14;;;;;;;7.38;1.90;;;;;;;21.23;36.78;102333.72;4843030;29;20034;-93
2021/06/23 13:30:40;;;;;;;5.45;1.60;;;;;;;21.22;36.87;102343.34;4842788;29;20034;-90
2021/06/23 13:33:06;;;;;;;12.00;2.08;;;;;;;21.15;36.92;102339.00;4844196;29;20041;-92
2021/06/23 13:35:31;;;;;;;7.82;2.10;;;;;;;21.17;37.02;102347.72;4846160;29;20022;-93
2021/06/23 13:37:57;;;;;;;6.93;1.80;;;;;;;21.08;37.08;102345.09;4831020;29;20508;-94
2021/06/23 13:40:24;;;;;;;9.30;1.92;;;;;;;21.01;37.16;102340.72;4815991;29;20080;-93
2021/06/23 13:42:51;;;;;;;9.35;2.03;;;;;;;21.03;37.40;102346.84;4846901;29;20061;-93
2021/06/23 13:45:20;;;;;;;7.10;1.80;;;;;;;21.01;37.37;102333.75;4845871;29;20387;-93
2021/06/23 13:47:47;;;;;;;7.38;2.03;;;;;;;21.03;37.36;102337.22;4846030;29;20407;-92
2021/06/23 13:50:16;;;;;;;8.10;1.90;;;;;;;21.06;37.45;102339.88;4830548;29;20106;-91
2021/06/23 13:52:43;;;;;;;6.00;1.77;;;;;;;21.10;37.43;102336.38;4846002;29;20473;-93
2021/06/23 13:55:11;;;;;;;9.10;1.92;;;;;;;21.08;37.14;102339.88;4845693;29;20121;-92
2021/06/23 13:57:39;;;;;;;8.65;1.92;;;;;;;21.06;37.27;102332.00;4830438;29;20022;-92
2021/06/23 14:00:05;;;;;;;8.35;1.90;;;;;;;21.11;37.30;102342.47;4832141;29;20026;-93
2021/06/23 14:02:31;;;;;;;7.68;2.30;;;;;;;21.04;37.21;102338.13;4833908;29;20516;-93
2021/06/23 14:04:56;;;;;;;8.52;2.30;;;;;;;21.02;37.44;102343.34;4833438;29;20068;-93
2021/06/23 14:07:21;;;;;;;9.48;2.30;;;;;;;21.02;37.66;102339.88;4832492;29;20048;-92
2021/06/23 14:09:48;;;;;;;9.75;1.85;;;;;;;20.93;37.58;102345.97;4802193;29;20034;-93
2021/06/23 14:12:13;;;;;;;8.13;2.08;;;;;;;20.86;37.53;102341.59;4846959;29;20062;-92
2021/06/23 14:14:39;;;;;;;10.15;2.50;;;;;;;20.91;37.94;102345.97;4815997;29;20638;-94
2021/06/23 14:17:04;;;;;;;7.63;2.30;;;;;;;20.94;37.67;102350.31;4831568;29;20490;-94
2021/06/23 14:19:29;;;;;;;9.20;2.40;;;;;;;20.95;37.77;102344.22;4846443;29;20030;-93
2021/06/23 14:21:55;;;;;;;7.53;2.40;;;;;;;20.97;38.07;102350.34;4830914;29;20034;-92
2021/06/23 14:24:20;;;;;;;12.50;2.10;;;;;;;20.92;37.98;102352.06;4847568;29;20037;-93
2021/06/23 14:26:46;;;;;;;9.48;2.33;;;;;;;20.89;37.91;102349.47;4845698;29;20187;-93
2021/06/23 14:29:12;;;;;;;4.57;1.83;;;;;;;20.92;37.96;102347.69;4830595;29;20058;-92
2021/06/23 14:31:37;;;;;;;7.55;2.10;;;;;;;20.90;38.24;102354.66;4815148;29;20128;-93
2021/06/23 14:34:03;;;;;;;7.45;2.03;;;;;;;20.88;38.25;102350.31;4830350;29;20117;-93
2021/06/23 14:36:28;;;;;;;10.27;2.40;;;;;;;20.80;38.44;102339.00;4845078;29;20030;-93
2021/06/23 14:38:54;;;;;;;8.85;2.08;;;;;;;20.77;38.29;102345.06;4858349;29;20022;-93
2021/06/23 14:41:20;;;;;;;5.47;2.00;;;;;;;20.77;38.56;102350.31;4865229;29;20030;-92
2021/06/23 14:43:46;;;;;;;9.70;2.97;;;;;;;20.69;38.39;102341.59;4840043;29;20030;-93
2021/06/23 14:46:12;;;;;;;4.95;2.08;;;;;;;20.61;38.69;102344.19;4848544;29;20438;-94
2021/06/23 14:48:37;;;;;;;8.98;2.38;;;;;;;20.69;38.43;102347.69;4846012;29;20030;-94
2021/06/23 14:51:03;;;;;;;8.95;2.50;;;;;;;20.73;38.52;102352.06;4845512;29;20116;-92
2021/06/23 14:53:28;;;;;;;8.48;2.20;;;;;;;20.72;38.69;102347.69;4830287;29;20037;-92